sensor_id;sensor_type;location;lat;lon;timestamp;P1;durP1;ratioP1;P2;durP2;ratioP2
63312;SDS011;49442;45.640;13.812;2022-10-22T00:00:33;10.25;;;4.03;;
63312;SDS011;49442;45.640;13.812;2022-10-22T00:02:59;15.43;;;6.00;;
63312;SDS011;49442;45.640;13.812;2022-10-22T00:05:43;14.23;;;4.50;;
63312;SDS011;49442;45.640;13.812;2022-10-22T00:08:09;15.40;;;4.53;;
63312;SDS011;49442;45.640;13.812;2022-10-22T00:10:53;7.65;;;4.10;;
63312;SDS011;49442;45.640;13.812;2022-10-22T00:13:19;11.60;;;4.45;;
63312;SDS011;49442;45.640;13.812;2022-10-22T00:15:45;9.85;;;4.28;;
63312;SDS011;49442;45.640;13.812;2022-10-22T00:21:13;10.45;;;4.38;;
63312;SDS011;49442;45.640;13.812;2022-10-22T00:23:39;12.48;;;5.65;;
63312;SDS011;49442;45.640;13.812;2022-10-22T00:26:06;9.10;;;4.07;;
63312;SDS011;49442;45.640;13.812;2022-10-22T00:28:32;9.07;;;4.38;;
63312;SDS011;49442;45.640;13.812;2022-10-22T00:34:01;8.63;;;3.88;;
63312;SDS011;49442;45.640;13.812;2022-10-22T00:39:13;8.70;;;4.28;;
63312;SDS011;49442;45.640;13.812;2022-10-22T00:41:41;14.27;;;4.97;;
63312;SDS011;49442;45.640;13.812;2022-10-22T00:44:56;14.50;;;4.60;;
63312;SDS011;49442;45.640;13.812;2022-10-22T00:47:11;10.05;;;4.90;;
63312;SDS011;49442;45.640;13.812;2022-10-22T00:49:38;9.82;;;4.30;;
63312;SDS011;49442;45.640;13.812;2022-10-22T00:52:22;9.10;;;4.30;;
63312;SDS011;49442;45.640;13.812;2022-10-22T00:55:25;7.55;;;4.15;;
63312;SDS011;49442;45.640;13.812;2022-10-22T00:58:30;13.80;;;4.50;;
63312;SDS011;49442;45.640;13.812;2022-10-22T01:00:59;18.95;;;5.50;;
63312;SDS011;49442;45.640;13.812;2022-10-22T01:03:26;12.90;;;6.55;;
63312;SDS011;49442;45.640;13.812;2022-10-22T01:05:56;20.73;;;10.98;;
63312;SDS011;49442;45.640;13.812;2022-10-22T01:08:45;20.50;;;12.00;;
63312;SDS011;49442;45.640;13.812;2022-10-22T01:11:29;15.73;;;6.75;;
63312;SDS011;49442;45.640;13.812;2022-10-22T01:16:45;11.70;;;6.28;;
63312;SDS011;49442;45.640;13.812;2022-10-22T01:31:24;10.40;;;3.97;;
63312;SDS011;49442;45.640;13.812;2022-10-22T01:33:54;12.70;;;4.53;;
63312;SDS011;49442;45.640;13.812;2022-10-22T01:36:40;13.32;;;3.88;;
63312;SDS011;49442;45.640;13.812;2022-10-22T01:39:06;9.38;;;3.78;;
63312;SDS011;49442;45.640;13.812;2022-10-22T01:41:33;9.38;;;3.67;;
63312;SDS011;49442;45.640;13.812;2022-10-22T01:55:35;8.55;;;3.50;;
63312;SDS011;49442;45.640;13.812;2022-10-22T02:01:22;10.90;;;4.22;;
63312;SDS011;49442;45.640;13.812;2022-10-22T02:06:53;13.20;;;4.63;;
63312;SDS011;49442;45.640;13.812;2022-10-22T02:09:24;14.18;;;5.15;;
63312;SDS011;49442;45.640;13.812;2022-10-22T02:11:53;13.82;;;4.70;;
63312;SDS011;49442;45.640;13.812;2022-10-22T02:14:24;10.18;;;4.53;;
63312;SDS011;49442;45.640;13.812;2022-10-22T02:17:12;13.55;;;4.32;;
63312;SDS011;49442;45.640;13.812;2022-10-22T02:22:19;11.75;;;4.60;;
63312;SDS011;49442;45.640;13.812;2022-10-22T02:24:45;12.30;;;5.13;;
63312;SDS011;49442;45.640;13.812;2022-10-22T02:27:31;16.33;;;5.55;;
63312;SDS011;49442;45.640;13.812;2022-10-22T02:30:20;12.98;;;4.82;;
63312;SDS011;49442;45.640;13.812;2022-10-22T02:32:54;13.45;;;4.88;;
63312;SDS011;49442;45.640;13.812;2022-10-22T02:35:26;16.25;;;4.72;;
63312;SDS011;49442;45.640;13.812;2022-10-22T02:37:54;11.52;;;5.15;;
63312;SDS011;49442;45.640;13.812;2022-10-22T02:40:22;13.35;;;5.28;;
63312;SDS011;49442;45.640;13.812;2022-10-22T02:45:32;14.23;;;5.40;;
63312;SDS011;49442;45.640;13.812;2022-10-22T02:47:58;13.95;;;4.93;;
63312;SDS011;49442;45.640;13.812;2022-10-22T02:50:43;17.90;;;5.88;;
63312;SDS011;49442;45.640;13.812;2022-10-22T02:53:08;16.45;;;5.97;;
63312;SDS011;49442;45.640;13.812;2022-10-22T02:55:34;14.98;;;6.03;;
63312;SDS011;49442;45.640;13.812;2022-10-22T02:57:59;13.00;;;5.60;;
63312;SDS011;49442;45.640;13.812;2022-10-22T03:00:26;19.08;;;5.60;;
63312;SDS011;49442;45.640;13.812;2022-10-22T03:03:11;12.07;;;5.15;;
63312;SDS011;49442;45.640;13.812;2022-10-22T03:08:21;8.23;;;4.82;;
63312;SDS011;49442;45.640;13.812;2022-10-22T03:10:46;13.07;;;5.72;;
63312;SDS011;49442;45.640;13.812;2022-10-22T03:13:15;12.52;;;5.90;;
63312;SDS011;49442;45.640;13.812;2022-10-22T03:15:41;11.45;;;5.53;;
63312;SDS011;49442;45.640;13.812;2022-10-22T03:18:06;13.07;;;5.63;;
63312;SDS011;49442;45.640;13.812;2022-10-22T03:20:32;15.38;;;5.72;;
63312;SDS011;49442;45.640;13.812;2022-10-22T03:22:58;14.98;;;6.05;;
63312;SDS011;49442;45.640;13.812;2022-10-22T03:25:25;11.40;;;6.10;;
63312;SDS011;49442;45.640;13.812;2022-10-22T03:27:52;12.73;;;6.13;;
63312;SDS011;49442;45.640;13.812;2022-10-22T03:30:19;12.48;;;5.22;;
63312;SDS011;49442;45.640;13.812;2022-10-22T03:32:45;15.75;;;6.05;;
63312;SDS011;49442;45.640;13.812;2022-10-22T03:35:11;12.60;;;6.18;;
63312;SDS011;49442;45.640;13.812;2022-10-22T03:37:36;13.80;;;5.78;;
63312;SDS011;49442;45.640;13.812;2022-10-22T03:40:21;13.30;;;5.70;;
63312;SDS011;49442;45.640;13.812;2022-10-22T03:43:06;14.85;;;5.70;;
63312;SDS011;49442;45.640;13.812;2022-10-22T03:45:31;13.63;;;6.10;;
63312;SDS011;49442;45.640;13.812;2022-10-22T03:47:57;12.32;;;5.78;;
63312;SDS011;49442;45.640;13.812;2022-10-22T03:50:41;17.60;;;6.68;;
63312;SDS011;49442;45.640;13.812;2022-10-22T03:53:07;13.48;;;5.82;;
63312;SDS011;49442;45.640;13.812;2022-10-22T03:55:34;13.52;;;6.65;;
63312;SDS011;49442;45.640;13.812;2022-10-22T03:58:02;14.63;;;6.22;;
63312;SDS011;49442;45.640;13.812;2022-10-22T04:00:28;16.60;;;6.40;;
63312;SDS011;49442;45.640;13.812;2022-10-22T04:02:54;21.98;;;6.50;;
63312;SDS011;49442;45.640;13.812;2022-10-22T04:05:19;18.73;;;6.68;;
63312;SDS011;49442;45.640;13.812;2022-10-22T04:07:45;12.45;;;6.20;;
63312;SDS011;49442;45.640;13.812;2022-10-22T04:10:11;11.23;;;5.68;;
63312;SDS011;49442;45.640;13.812;2022-10-22T04:12:36;15.25;;;6.28;;
63312;SDS011;49442;45.640;13.812;2022-10-22T04:15:02;15.27;;;6.10;;
63312;SDS011;49442;45.640;13.812;2022-10-22T04:17:35;12.90;;;5.47;;
63312;SDS011;49442;45.640;13.812;2022-10-22T04:20:02;17.00;;;6.55;;
63312;SDS011;49442;45.640;13.812;2022-10-22T04:22:29;11.95;;;6.15;;
63312;SDS011;49442;45.640;13.812;2022-10-22T04:24:57;13.02;;;5.72;;
63312;SDS011;49442;45.640;13.812;2022-10-22T04:27:22;17.92;;;6.15;;
63312;SDS011;49442;45.640;13.812;2022-10-22T04:32:51;15.48;;;6.47;;
63312;SDS011;49442;45.640;13.812;2022-10-22T04:35:37;13.48;;;6.57;;
63312;SDS011;49442;45.640;13.812;2022-10-22T04:38:03;14.50;;;7.40;;
63312;SDS011;49442;45.640;13.812;2022-10-22T04:40:29;15.60;;;6.40;;
63312;SDS011;49442;45.640;13.812;2022-10-22T04:43:13;10.80;;;6.22;;
63312;SDS011;49442;45.640;13.812;2022-10-22T04:45:39;10.02;;;6.45;;
63312;SDS011;49442;45.640;13.812;2022-10-22T04:48:04;14.07;;;6.50;;
63312;SDS011;49442;45.640;13.812;2022-10-22T04:50:34;16.73;;;6.95;;
63312;SDS011;49442;45.640;13.812;2022-10-22T04:53:18;16.10;;;7.10;;
63312;SDS011;49442;45.640;13.812;2022-10-22T04:55:43;12.00;;;5.88;;
63312;SDS011;49442;45.640;13.812;2022-10-22T04:58:09;11.90;;;6.22;;
63312;SDS011;49442;45.640;13.812;2022-10-22T05:00:35;12.02;;;6.65;;
63312;SDS011;49442;45.640;13.812;2022-10-22T05:03:19;11.57;;;6.65;;
63312;SDS011;49442;45.640;13.812;2022-10-22T05:05:44;14.15;;;6.13;;
63312;SDS011;49442;45.640;13.812;2022-10-22T05:08:10;13.57;;;6.80;;
63312;SDS011;49442;45.640;13.812;2022-10-22T05:10:35;18.05;;;7.35;;
63312;SDS011;49442;45.640;13.812;2022-10-22T05:13:01;12.93;;;7.15;;
63312;SDS011;49442;45.640;13.812;2022-10-22T05:15:27;18.27;;;7.18;;
63312;SDS011;49442;45.640;13.812;2022-10-22T05:18:11;18.50;;;6.85;;
63312;SDS011;49442;45.640;13.812;2022-10-22T05:20:40;12.50;;;6.80;;
63312;SDS011;49442;45.640;13.812;2022-10-22T05:23:06;15.32;;;8.48;;
63312;SDS011;49442;45.640;13.812;2022-10-22T05:25:37;11.27;;;6.13;;
63312;SDS011;49442;45.640;13.812;2022-10-22T05:28:03;15.32;;;7.53;;
63312;SDS011;49442;45.640;13.812;2022-10-22T05:30:29;22.63;;;8.25;;
63312;SDS011;49442;45.640;13.812;2022-10-22T05:32:55;14.45;;;6.85;;
63312;SDS011;49442;45.640;13.812;2022-10-22T05:35:39;13.98;;;6.63;;
63312;SDS011;49442;45.640;13.812;2022-10-22T05:38:04;17.20;;;7.05;;
63312;SDS011;49442;45.640;13.812;2022-10-22T05:40:30;13.15;;;6.78;;
63312;SDS011;49442;45.640;13.812;2022-10-22T05:43:14;22.90;;;6.93;;
63312;SDS011;49442;45.640;13.812;2022-10-22T05:45:40;19.98;;;7.15;;
63312;SDS011;49442;45.640;13.812;2022-10-22T05:48:07;15.82;;;6.88;;
63312;SDS011;49442;45.640;13.812;2022-10-22T05:53:18;18.33;;;6.95;;
63312;SDS011;49442;45.640;13.812;2022-10-22T05:55:46;15.13;;;6.50;;
63312;SDS011;49442;45.640;13.812;2022-10-22T05:58:12;11.43;;;6.65;;
63312;SDS011;49442;45.640;13.812;2022-10-22T06:00:38;11.80;;;6.68;;
63312;SDS011;49442;45.640;13.812;2022-10-22T06:03:04;13.43;;;7.13;;
63312;SDS011;49442;45.640;13.812;2022-10-22T06:05:30;24.10;;;7.60;;
63312;SDS011;49442;45.640;13.812;2022-10-22T06:13:29;21.52;;;6.97;;
63312;SDS011;49442;45.640;13.812;2022-10-22T06:15:56;17.20;;;7.28;;
63312;SDS011;49442;45.640;13.812;2022-10-22T06:18:22;11.52;;;6.68;;
63312;SDS011;49442;45.640;13.812;2022-10-22T06:20:48;16.48;;;7.03;;
63312;SDS011;49442;45.640;13.812;2022-10-22T06:23:14;17.75;;;7.15;;
63312;SDS011;49442;45.640;13.812;2022-10-22T06:25:40;22.05;;;7.15;;
63312;SDS011;49442;45.640;13.812;2022-10-22T06:28:06;14.20;;;7.63;;
63312;SDS011;49442;45.640;13.812;2022-10-22T06:30:32;23.58;;;7.38;;
63312;SDS011;49442;45.640;13.812;2022-10-22T06:32:58;16.48;;;7.55;;
63312;SDS011;49442;45.640;13.812;2022-10-22T06:38:09;16.08;;;7.10;;
63312;SDS011;49442;45.640;13.812;2022-10-22T06:40:35;14.55;;;6.35;;
63312;SDS011;49442;45.640;13.812;2022-10-22T06:43:01;17.55;;;7.63;;
63312;SDS011;49442;45.640;13.812;2022-10-22T06:45:27;19.98;;;7.10;;
63312;SDS011;49442;45.640;13.812;2022-10-22T06:47:53;17.80;;;7.20;;
63312;SDS011;49442;45.640;13.812;2022-10-22T06:53:06;16.92;;;7.00;;
63312;SDS011;49442;45.640;13.812;2022-10-22T06:55:34;15.73;;;6.97;;
63312;SDS011;49442;45.640;13.812;2022-10-22T06:57:59;9.45;;;5.85;;
63312;SDS011;49442;45.640;13.812;2022-10-22T07:00:25;17.60;;;6.72;;
63312;SDS011;49442;45.640;13.812;2022-10-22T07:02:51;13.90;;;6.65;;
63312;SDS011;49442;45.640;13.812;2022-10-22T07:05:17;14.07;;;6.40;;
63312;SDS011;49442;45.640;13.812;2022-10-22T07:08:01;14.40;;;6.90;;
63312;SDS011;49442;45.640;13.812;2022-10-22T07:10:27;17.00;;;7.00;;
63312;SDS011;49442;45.640;13.812;2022-10-22T07:12:53;14.93;;;6.82;;
63312;SDS011;49442;45.640;13.812;2022-10-22T07:15:18;13.52;;;6.55;;
63312;SDS011;49442;45.640;13.812;2022-10-22T07:17:44;14.70;;;6.70;;
63312;SDS011;49442;45.640;13.812;2022-10-22T07:20:10;17.08;;;8.00;;
63312;SDS011;49442;45.640;13.812;2022-10-22T07:22:54;13.05;;;6.70;;
63312;SDS011;49442;45.640;13.812;2022-10-22T07:25:20;10.35;;;6.22;;
63312;SDS011;49442;45.640;13.812;2022-10-22T07:28:04;12.88;;;6.40;;
63312;SDS011;49442;45.640;13.812;2022-10-22T07:30:48;13.70;;;6.55;;
63312;SDS011;49442;45.640;13.812;2022-10-22T07:33:14;11.88;;;5.88;;
63312;SDS011;49442;45.640;13.812;2022-10-22T07:35:39;16.05;;;7.00;;
63312;SDS011;49442;45.640;13.812;2022-10-22T07:38:24;11.63;;;6.25;;
63312;SDS011;49442;45.640;13.812;2022-10-22T07:40:51;18.48;;;6.60;;
63312;SDS011;49442;45.640;13.812;2022-10-22T07:46:01;18.77;;;6.53;;
63312;SDS011;49442;45.640;13.812;2022-10-22T07:48:27;13.45;;;6.22;;
63312;SDS011;49442;45.640;13.812;2022-10-22T07:51:11;18.90;;;6.85;;
63312;SDS011;49442;45.640;13.812;2022-10-22T07:56:40;17.00;;;6.03;;
63312;SDS011;49442;45.640;13.812;2022-10-22T07:59:06;14.43;;;6.70;;
63312;SDS011;49442;45.640;13.812;2022-10-22T08:01:50;12.02;;;6.47;;
63312;SDS011;49442;45.640;13.812;2022-10-22T08:04:34;11.85;;;6.20;;
63312;SDS011;49442;45.640;13.812;2022-10-22T08:07:00;22.55;;;7.45;;
63312;SDS011;49442;45.640;13.812;2022-10-22T08:09:44;16.17;;;6.50;;
63312;SDS011;49442;45.640;13.812;2022-10-22T08:12:10;15.65;;;7.18;;
63312;SDS011;49442;45.640;13.812;2022-10-22T08:14:35;15.40;;;6.93;;
63312;SDS011;49442;45.640;13.812;2022-10-22T08:17:19;14.02;;;6.90;;
63312;SDS011;49442;45.640;13.812;2022-10-22T08:19:45;16.05;;;6.32;;
63312;SDS011;49442;45.640;13.812;2022-10-22T08:22:11;14.65;;;6.43;;
63312;SDS011;49442;45.640;13.812;2022-10-22T08:24:55;15.48;;;6.65;;
63312;SDS011;49442;45.640;13.812;2022-10-22T08:27:21;19.83;;;6.65;;
63312;SDS011;49442;45.640;13.812;2022-10-22T08:29:46;15.27;;;6.97;;
63312;SDS011;49442;45.640;13.812;2022-10-22T08:32:12;18.98;;;7.38;;
63312;SDS011;49442;45.640;13.812;2022-10-22T08:34:38;18.95;;;7.78;;
63312;SDS011;49442;45.640;13.812;2022-10-22T08:37:04;17.17;;;6.88;;
63312;SDS011;49442;45.640;13.812;2022-10-22T08:39:32;18.42;;;7.53;;
63312;SDS011;49442;45.640;13.812;2022-10-22T08:42:17;19.05;;;6.57;;
63312;SDS011;49442;45.640;13.812;2022-10-22T08:45:29;20.48;;;7.18;;
63312;SDS011;49442;45.640;13.812;2022-10-22T08:48:15;16.08;;;7.53;;
63312;SDS011;49442;45.640;13.812;2022-10-22T08:50:55;21.55;;;6.82;;
63312;SDS011;49442;45.640;13.812;2022-10-22T08:53:25;16.45;;;7.68;;
63312;SDS011;49442;45.640;13.812;2022-10-22T08:56:10;15.82;;;7.03;;
63312;SDS011;49442;45.640;13.812;2022-10-22T09:01:32;19.60;;;7.22;;
63312;SDS011;49442;45.640;13.812;2022-10-22T09:06:43;21.73;;;6.53;;
63312;SDS011;49442;45.640;13.812;2022-10-22T09:09:15;12.25;;;6.45;;
63312;SDS011;49442;45.640;13.812;2022-10-22T09:11:43;22.95;;;6.75;;
63312;SDS011;49442;45.640;13.812;2022-10-22T09:14:21;19.63;;;6.80;;
63312;SDS011;49442;45.640;13.812;2022-10-22T09:17:03;13.98;;;6.97;;
63312;SDS011;49442;45.640;13.812;2022-10-22T09:25:32;14.85;;;6.63;;
63312;SDS011;49442;45.640;13.812;2022-10-22T09:28:00;17.77;;;7.60;;
63312;SDS011;49442;45.640;13.812;2022-10-22T09:30:28;17.77;;;8.23;;
63312;SDS011;49442;45.640;13.812;2022-10-22T09:32:59;16.23;;;7.47;;
63312;SDS011;49442;45.640;13.812;2022-10-22T09:35:52;19.98;;;7.00;;
63312;SDS011;49442;45.640;13.812;2022-10-22T09:38:30;19.40;;;6.38;;
63312;SDS011;49442;45.640;13.812;2022-10-22T09:40:59;18.58;;;7.00;;
63312;SDS011;49442;45.640;13.812;2022-10-22T09:43:27;18.60;;;7.53;;
63312;SDS011;49442;45.640;13.812;2022-10-22T09:48:42;19.17;;;7.38;;
63312;SDS011;49442;45.640;13.812;2022-10-22T09:51:50;20.25;;;7.00;;
63312;SDS011;49442;45.640;13.812;2022-10-22T09:56:55;18.73;;;6.43;;
63312;SDS011;49442;45.640;13.812;2022-10-22T09:59:41;12.90;;;6.90;;
63312;SDS011;49442;45.640;13.812;2022-10-22T10:04:53;25.02;;;7.28;;
63312;SDS011;49442;45.640;13.812;2022-10-22T10:07:21;12.63;;;6.03;;
63312;SDS011;49442;45.640;13.812;2022-10-22T10:09:49;17.77;;;6.43;;
63312;SDS011;49442;45.640;13.812;2022-10-22T10:17:57;18.73;;;6.63;;
63312;SDS011;49442;45.640;13.812;2022-10-22T10:20:32;12.68;;;6.57;;
63312;SDS011;49442;45.640;13.812;2022-10-22T10:37:42;16.83;;;7.35;;
63312;SDS011;49442;45.640;13.812;2022-10-22T10:40:18;16.67;;;7.35;;
63312;SDS011;49442;45.640;13.812;2022-10-22T10:43:09;16.88;;;7.35;;
63312;SDS011;49442;45.640;13.812;2022-10-22T10:48:56;15.82;;;6.95;;
63312;SDS011;49442;45.640;13.812;2022-10-22T10:56:59;15.40;;;6.97;;
63312;SDS011;49442;45.640;13.812;2022-10-22T11:08:22;25.88;;;7.72;;
63312;SDS011;49442;45.640;13.812;2022-10-22T11:14:21;23.77;;;6.90;;
63312;SDS011;49442;45.640;13.812;2022-10-22T11:17:01;14.80;;;6.25;;
63312;SDS011;49442;45.640;13.812;2022-10-22T11:19:47;16.42;;;6.63;;
63312;SDS011;49442;45.640;13.812;2022-10-22T11:23:03;15.93;;;6.35;;
63312;SDS011;49442;45.640;13.812;2022-10-22T11:25:49;13.43;;;6.60;;
63312;SDS011;49442;45.640;13.812;2022-10-22T11:30:57;18.52;;;6.70;;
63312;SDS011;49442;45.640;13.812;2022-10-22T11:33:32;20.95;;;6.70;;
63312;SDS011;49442;45.640;13.812;2022-10-22T11:36:07;25.60;;;7.82;;
63312;SDS011;49442;45.640;13.812;2022-10-22T11:38:52;19.40;;;7.03;;
63312;SDS011;49442;45.640;13.812;2022-10-22T11:41:37;17.98;;;7.25;;
63312;SDS011;49442;45.640;13.812;2022-10-22T11:46:37;18.05;;;7.20;;
63312;SDS011;49442;45.640;13.812;2022-10-22T11:51:42;16.42;;;7.43;;
63312;SDS011;49442;45.640;13.812;2022-10-22T11:59:46;19.50;;;7.80;;
63312;SDS011;49442;45.640;13.812;2022-10-22T12:10:18;21.83;;;7.50;;
63312;SDS011;49442;45.640;13.812;2022-10-22T12:12:51;22.42;;;7.22;;
63312;SDS011;49442;45.640;13.812;2022-10-22T12:15:27;13.25;;;6.45;;
63312;SDS011;49442;45.640;13.812;2022-10-22T12:20:38;15.90;;;6.82;;
63312;SDS011;49442;45.640;13.812;2022-10-22T12:23:04;17.75;;;7.40;;
63312;SDS011;49442;45.640;13.812;2022-10-22T12:25:33;23.05;;;7.78;;
63312;SDS011;49442;45.640;13.812;2022-10-22T12:28:00;22.15;;;7.20;;
63312;SDS011;49442;45.640;13.812;2022-10-22T12:30:28;13.35;;;7.00;;
63312;SDS011;49442;45.640;13.812;2022-10-22T12:32:59;19.45;;;6.85;;
63312;SDS011;49442;45.640;13.812;2022-10-22T12:35:29;22.80;;;7.55;;
63312;SDS011;49442;45.640;13.812;2022-10-22T12:37:59;15.82;;;7.40;;
63312;SDS011;49442;45.640;13.812;2022-10-22T12:40:32;19.98;;;6.90;;
63312;SDS011;49442;45.640;13.812;2022-10-22T12:43:00;15.85;;;6.47;;
63312;SDS011;49442;45.640;13.812;2022-10-22T12:45:31;22.88;;;6.90;;
63312;SDS011;49442;45.640;13.812;2022-10-22T12:48:00;18.45;;;7.07;;
63312;SDS011;49442;45.640;13.812;2022-10-22T12:50:30;24.85;;;7.35;;
63312;SDS011;49442;45.640;13.812;2022-10-22T12:53:49;19.92;;;6.60;;
63312;SDS011;49442;45.640;13.812;2022-10-22T12:56:01;21.65;;;7.25;;
63312;SDS011;49442;45.640;13.812;2022-10-22T13:01:45;25.77;;;7.97;;
63312;SDS011;49442;45.640;13.812;2022-10-22T13:09:38;19.88;;;8.18;;
63312;SDS011;49442;45.640;13.812;2022-10-22T13:12:11;20.38;;;8.68;;
63312;SDS011;49442;45.640;13.812;2022-10-22T13:17:42;25.13;;;8.55;;
63312;SDS011;49442;45.640;13.812;2022-10-22T13:20:27;29.33;;;10.77;;
63312;SDS011;49442;45.640;13.812;2022-10-22T13:25:28;26.58;;;9.68;;
63312;SDS011;49442;45.640;13.812;2022-10-22T13:30:37;16.25;;;8.90;;
63312;SDS011;49442;45.640;13.812;2022-10-22T13:36:02;19.77;;;8.18;;
63312;SDS011;49442;45.640;13.812;2022-10-22T13:38:29;19.23;;;9.13;;
63312;SDS011;49442;45.640;13.812;2022-10-22T13:41:17;21.02;;;9.43;;
63312;SDS011;49442;45.640;13.812;2022-10-22T13:43:44;22.52;;;8.75;;
63312;SDS011;49442;45.640;13.812;2022-10-22T13:46:10;25.52;;;8.60;;
63312;SDS011;49442;45.640;13.812;2022-10-22T13:48:36;15.77;;;8.27;;
63312;SDS011;49442;45.640;13.812;2022-10-22T13:51:03;26.70;;;8.32;;
63312;SDS011;49442;45.640;13.812;2022-10-22T13:53:47;25.48;;;8.77;;
63312;SDS011;49442;45.640;13.812;2022-10-22T13:56:33;23.42;;;9.20;;
63312;SDS011;49442;45.640;13.812;2022-10-22T13:59:17;21.27;;;8.95;;
63312;SDS011;49442;45.640;13.812;2022-10-22T14:01:43;25.08;;;8.43;;
63312;SDS011;49442;45.640;13.812;2022-10-22T14:04:09;27.17;;;8.48;;
63312;SDS011;49442;45.640;13.812;2022-10-22T14:06:37;20.45;;;8.23;;
63312;SDS011;49442;45.640;13.812;2022-10-22T14:09:22;27.35;;;10.13;;
63312;SDS011;49442;45.640;13.812;2022-10-22T14:11:47;18.42;;;9.25;;
63312;SDS011;49442;45.640;13.812;2022-10-22T14:14:13;19.73;;;8.60;;
63312;SDS011;49442;45.640;13.812;2022-10-22T14:16:41;20.92;;;8.45;;
63312;SDS011;49442;45.640;13.812;2022-10-22T14:19:08;20.70;;;8.52;;
63312;SDS011;49442;45.640;13.812;2022-10-22T14:21:41;27.45;;;9.20;;
63312;SDS011;49442;45.640;13.812;2022-10-22T14:24:08;26.67;;;11.27;;
63312;SDS011;49442;45.640;13.812;2022-10-22T14:26:35;26.25;;;10.38;;
63312;SDS011;49442;45.640;13.812;2022-10-22T14:29:00;23.67;;;9.82;;
63312;SDS011;49442;45.640;13.812;2022-10-22T14:31:26;29.58;;;10.50;;
63312;SDS011;49442;45.640;13.812;2022-10-22T14:33:52;18.38;;;10.60;;
63312;SDS011;49442;45.640;13.812;2022-10-22T14:36:18;19.30;;;10.30;;
63312;SDS011;49442;45.640;13.812;2022-10-22T14:38:44;27.17;;;12.43;;
63312;SDS011;49442;45.640;13.812;2022-10-22T14:41:21;29.85;;;11.82;;
63312;SDS011;49442;45.640;13.812;2022-10-22T14:43:48;28.85;;;12.13;;
63312;SDS011;49442;45.640;13.812;2022-10-22T14:46:15;34.83;;;12.18;;
63312;SDS011;49442;45.640;13.812;2022-10-22T14:48:44;24.95;;;12.05;;
63312;SDS011;49442;45.640;13.812;2022-10-22T14:51:29;27.25;;;11.88;;
63312;SDS011;49442;45.640;13.812;2022-10-22T14:53:54;19.48;;;8.38;;
63312;SDS011;49442;45.640;13.812;2022-10-22T14:56:39;22.95;;;9.45;;
63312;SDS011;49442;45.640;13.812;2022-10-22T15:02:09;25.92;;;10.48;;
63312;SDS011;49442;45.640;13.812;2022-10-22T15:04:37;22.45;;;10.40;;
63312;SDS011;49442;45.640;13.812;2022-10-22T15:07:03;25.60;;;10.65;;
63312;SDS011;49442;45.640;13.812;2022-10-22T15:09:29;33.42;;;10.77;;
63312;SDS011;49442;45.640;13.812;2022-10-22T15:11:55;25.15;;;9.98;;
63312;SDS011;49442;45.640;13.812;2022-10-22T15:14:20;23.30;;;10.88;;
63312;SDS011;49442;45.640;13.812;2022-10-22T15:16:46;22.33;;;10.60;;
63312;SDS011;49442;45.640;13.812;2022-10-22T15:19:12;28.88;;;11.15;;
63312;SDS011;49442;45.640;13.812;2022-10-22T15:21:38;27.30;;;11.27;;
63312;SDS011;49442;45.640;13.812;2022-10-22T15:24:03;32.35;;;9.77;;
63312;SDS011;49442;45.640;13.812;2022-10-22T15:26:29;20.45;;;8.70;;
63312;SDS011;49442;45.640;13.812;2022-10-22T15:28:55;18.92;;;9.50;;
63312;SDS011;49442;45.640;13.812;2022-10-22T15:31:40;23.33;;;9.57;;
63312;SDS011;49442;45.640;13.812;2022-10-22T15:34:06;22.58;;;9.90;;
63312;SDS011;49442;45.640;13.812;2022-10-22T15:36:32;19.42;;;9.15;;
63312;SDS011;49442;45.640;13.812;2022-10-22T15:38:57;25.80;;;10.07;;
63312;SDS011;49442;45.640;13.812;2022-10-22T15:41:23;19.13;;;8.43;;
63312;SDS011;49442;45.640;13.812;2022-10-22T15:43:48;19.92;;;9.40;;
63312;SDS011;49442;45.640;13.812;2022-10-22T15:46:18;22.90;;;9.57;;
63312;SDS011;49442;45.640;13.812;2022-10-22T15:48:44;21.20;;;10.07;;
63312;SDS011;49442;45.640;13.812;2022-10-22T15:51:11;23.92;;;9.02;;
63312;SDS011;49442;45.640;13.812;2022-10-22T15:56:42;23.38;;;9.77;;
63312;SDS011;49442;45.640;13.812;2022-10-22T15:59:27;22.13;;;9.77;;
63312;SDS011;49442;45.640;13.812;2022-10-22T16:01:52;31.55;;;9.80;;
63312;SDS011;49442;45.640;13.812;2022-10-22T16:04:18;24.30;;;9.80;;
63312;SDS011;49442;45.640;13.812;2022-10-22T16:06:45;25.48;;;9.68;;
63312;SDS011;49442;45.640;13.812;2022-10-22T16:09:17;24.90;;;9.23;;
63312;SDS011;49442;45.640;13.812;2022-10-22T16:11:45;26.30;;;9.45;;
63312;SDS011;49442;45.640;13.812;2022-10-22T16:14:15;18.83;;;8.48;;
63312;SDS011;49442;45.640;13.812;2022-10-22T16:16:42;21.98;;;9.45;;
63312;SDS011;49442;45.640;13.812;2022-10-22T16:19:27;21.83;;;8.82;;
63312;SDS011;49442;45.640;13.812;2022-10-22T16:21:54;24.15;;;9.70;;
63312;SDS011;49442;45.640;13.812;2022-10-22T16:27:07;22.52;;;10.38;;
63312;SDS011;49442;45.640;13.812;2022-10-22T16:29:35;34.13;;;10.18;;
63312;SDS011;49442;45.640;13.812;2022-10-22T16:32:02;26.23;;;10.63;;
63312;SDS011;49442;45.640;13.812;2022-10-22T16:34:47;18.33;;;8.98;;
63312;SDS011;49442;45.640;13.812;2022-10-22T16:37:12;25.02;;;9.63;;
63312;SDS011;49442;45.640;13.812;2022-10-22T16:39:38;21.10;;;9.90;;
63312;SDS011;49442;45.640;13.812;2022-10-22T16:42:04;19.13;;;8.88;;
63312;SDS011;49442;45.640;13.812;2022-10-22T16:44:29;19.85;;;8.15;;
63312;SDS011;49442;45.640;13.812;2022-10-22T16:46:55;17.17;;;9.55;;
63312;SDS011;49442;45.640;13.812;2022-10-22T16:49:21;22.25;;;9.55;;
63312;SDS011;49442;45.640;13.812;2022-10-22T16:54:49;23.77;;;18.17;;
63312;SDS011;49442;45.640;13.812;2022-10-22T17:00:18;19.20;;;10.50;;
63312;SDS011;49442;45.640;13.812;2022-10-22T17:03:03;21.63;;;9.93;;
63312;SDS011;49442;45.640;13.812;2022-10-22T17:05:29;20.10;;;10.10;;
63312;SDS011;49442;45.640;13.812;2022-10-22T17:07:55;26.17;;;10.15;;
63312;SDS011;49442;45.640;13.812;2022-10-22T17:10:21;14.55;;;8.57;;
63312;SDS011;49442;45.640;13.812;2022-10-22T17:12:48;36.17;;;21.15;;
63312;SDS011;49442;45.640;13.812;2022-10-22T17:15:13;33.63;;;19.08;;
63312;SDS011;49442;45.640;13.812;2022-10-22T17:17:39;18.50;;;10.07;;
63312;SDS011;49442;45.640;13.812;2022-10-22T17:20:05;31.15;;;12.48;;
63312;SDS011;49442;45.640;13.812;2022-10-22T17:22:31;18.80;;;11.77;;
63312;SDS011;49442;45.640;13.812;2022-10-22T17:27:39;16.30;;;9.30;;
63312;SDS011;49442;45.640;13.812;2022-10-22T17:30:23;22.20;;;10.02;;
63312;SDS011;49442;45.640;13.812;2022-10-22T17:32:51;27.50;;;9.90;;
63312;SDS011;49442;45.640;13.812;2022-10-22T17:35:17;23.15;;;9.63;;
63312;SDS011;49442;45.640;13.812;2022-10-22T17:37:46;27.52;;;10.52;;
63312;SDS011;49442;45.640;13.812;2022-10-22T17:40:12;18.42;;;9.68;;
63312;SDS011;49442;45.640;13.812;2022-10-22T17:42:38;22.88;;;9.77;;
63312;SDS011;49442;45.640;13.812;2022-10-22T17:45:04;23.73;;;9.18;;
63312;SDS011;49442;45.640;13.812;2022-10-22T17:47:30;26.48;;;11.45;;
63312;SDS011;49442;45.640;13.812;2022-10-22T17:49:56;21.55;;;9.70;;
63312;SDS011;49442;45.640;13.812;2022-10-22T17:52:22;24.25;;;9.50;;
63312;SDS011;49442;45.640;13.812;2022-10-22T17:54:48;31.75;;;10.82;;
63312;SDS011;49442;45.640;13.812;2022-10-22T17:57:15;18.98;;;10.18;;